createdAt,value
2023-05-23T00:00:15.806Z,25.03
2023-05-23T00:02:43.738Z,24.87
2023-05-23T00:05:10.666Z,26.20
2023-05-23T00:07:37.433Z,26.93
2023-05-23T00:10:04.886Z,25.67
2023-05-23T00:12:31.588Z,26.77
2023-05-23T00:14:58.312Z,26.23
2023-05-23T00:17:25.639Z,26.80
2023-05-23T00:19:52.840Z,27.00
2023-05-23T00:22:19.696Z,26.00
2023-05-23T00:24:46.442Z,27.30
2023-05-23T00:27:13.467Z,26.23
2023-05-23T00:29:40.411Z,26.77
2023-05-23T00:32:07.346Z,27.33
2023-05-23T00:34:34.499Z,26.53
2023-05-23T00:37:02.214Z,24.63
2023-05-23T00:39:29.151Z,23.13
2023-05-23T00:41:57.059Z,24.03
2023-05-23T00:44:23.829Z,24.70
2023-05-23T00:46:56.475Z,25.03
2023-05-23T00:49:24.151Z,27.30
2023-05-23T00:51:52.429Z,24.67
2023-05-23T00:54:23.826Z,24.07
2023-05-23T00:56:50.678Z,24.63
2023-05-23T00:59:17.583Z,25.07
2023-05-23T01:01:46.783Z,24.27
2023-05-23T01:04:14.299Z,24.00
2023-05-23T01:06:41.062Z,24.67
2023-05-23T01:09:09.562Z,24.00
2023-05-23T01:11:48.080Z,22.30
2023-05-23T01:14:22.855Z,22.83
2023-05-23T01:17:05.394Z,23.73
2023-05-23T01:19:51.788Z,22.07
2023-05-23T01:22:27.289Z,21.57
2023-05-23T01:25:15.825Z,22.67
2023-05-23T01:27:54.257Z,24.40
2023-05-23T01:30:21.487Z,22.33
2023-05-23T01:32:50.918Z,23.73
2023-05-23T01:35:23.498Z,23.80
2023-05-23T01:37:50.212Z,22.87
2023-05-23T01:40:16.961Z,24.50
2023-05-23T01:42:43.791Z,28.13
2023-05-23T01:45:11.352Z,24.83
2023-05-23T01:47:40.559Z,24.00
2023-05-23T01:50:09.193Z,25.07
2023-05-23T01:52:36.910Z,23.67
2023-05-23T01:55:09.700Z,21.57
2023-05-23T01:57:38.100Z,21.77
2023-05-23T02:00:06.826Z,21.63
2023-05-23T02:02:40.719Z,20.03
2023-05-23T02:05:09.318Z,19.07
2023-05-23T02:07:36.117Z,19.37
2023-05-23T02:10:04.353Z,18.23
2023-05-23T02:12:31.109Z,19.60
2023-05-23T02:14:58.626Z,19.43
2023-05-23T02:17:25.445Z,21.73
2023-05-23T02:19:52.241Z,21.33
2023-05-23T02:22:24.573Z,22.20
2023-05-23T02:24:51.762Z,20.80
2023-05-23T02:27:19.072Z,22.00
2023-05-23T02:29:46.023Z,20.80
2023-05-23T02:32:12.800Z,22.23
2023-05-23T02:34:40.370Z,21.40
2023-05-23T02:37:07.407Z,21.30
2023-05-23T02:39:36.311Z,19.97
2023-05-23T02:42:04.652Z,18.97
2023-05-23T02:44:32.114Z,20.17
2023-05-23T02:46:58.828Z,19.30
2023-05-23T02:49:25.821Z,20.23
2023-05-23T02:51:52.676Z,21.00
2023-05-23T02:54:19.584Z,21.07
2023-05-23T02:56:46.604Z,20.50
2023-05-23T02:59:13.706Z,21.60
2023-05-23T03:01:40.647Z,21.13
2023-05-23T03:04:07.678Z,20.10
2023-05-23T03:06:36.946Z,20.73
2023-05-23T03:09:04.122Z,21.73
2023-05-23T03:11:31.323Z,21.10
2023-05-23T03:13:59.740Z,21.60
2023-05-23T03:16:26.637Z,19.77
2023-05-23T03:18:53.668Z,21.43
2023-05-23T03:21:20.517Z,20.97
2023-05-23T03:23:47.726Z,19.87
2023-05-23T03:26:14.635Z,19.83
2023-05-23T03:28:41.496Z,20.00
2023-05-23T03:31:08.347Z,20.27
2023-05-23T03:33:36.173Z,20.47
2023-05-23T03:36:04.609Z,21.77
2023-05-23T03:38:31.450Z,20.83
2023-05-23T03:40:58.266Z,20.13
2023-05-23T03:43:25.288Z,20.50
2023-05-23T03:45:52.173Z,20.83
2023-05-23T03:48:19.039Z,20.27
2023-05-23T03:50:47.925Z,20.93
2023-05-23T03:53:14.863Z,19.13
2023-05-23T03:55:42.629Z,20.67
2023-05-23T03:58:09.812Z,20.27
2023-05-23T04:00:37.169Z,19.27
2023-05-23T04:03:07.040Z,19.57
2023-05-23T04:05:34.060Z,18.93
2023-05-23T04:08:03.830Z,18.93
2023-05-23T04:10:31.278Z,19.17
2023-05-23T04:12:58.980Z,19.00
2023-05-23T04:15:25.932Z,17.43
2023-05-23T04:17:58.375Z,17.57
2023-05-23T04:20:26.727Z,16.87
2023-05-23T04:22:53.610Z,18.13
2023-05-23T04:25:20.903Z,18.97
2023-05-23T04:27:59.780Z,19.57
2023-05-23T04:30:26.764Z,19.47
2023-05-23T04:32:53.718Z,18.20
2023-05-23T04:35:21.275Z,18.17
2023-05-23T04:37:48.009Z,17.33
2023-05-23T04:40:14.767Z,17.33
2023-05-23T04:43:04.984Z,16.87
2023-05-23T04:45:38.035Z,16.60
2023-05-23T04:48:21.633Z,16.47
2023-05-23T04:50:48.924Z,16.40
2023-05-23T04:53:15.771Z,16.60
2023-05-23T04:55:43.302Z,14.57
2023-05-23T04:58:14.464Z,15.87
2023-05-23T05:00:42.373Z,15.10
2023-05-23T05:03:12.016Z,13.60
2023-05-23T05:05:42.622Z,13.77
2023-05-23T05:08:09.310Z,13.30
2023-05-23T05:10:36.181Z,12.17
2023-05-23T05:13:03.369Z,12.83
2023-05-23T05:15:38.228Z,12.50
2023-05-23T05:18:05.004Z,11.87
2023-05-23T05:20:31.780Z,12.30
2023-05-23T05:22:58.560Z,11.93
2023-05-23T05:25:27.344Z,11.57
2023-05-23T05:27:54.079Z,10.60
2023-05-23T05:30:22.056Z,11.07
2023-05-23T05:33:02.109Z,10.73
2023-05-23T05:35:29.614Z,10.63
2023-05-23T05:37:56.330Z,9.80
2023-05-23T05:40:23.605Z,9.20
2023-05-23T05:42:51.097Z,9.40
2023-05-23T05:45:18.463Z,8.50
2023-05-23T05:47:47.094Z,8.93
2023-05-23T05:50:13.987Z,7.67
2023-05-23T05:52:42.204Z,8.73
2023-05-23T05:55:13.697Z,7.67
2023-05-23T05:57:45.375Z,6.80
2023-05-23T06:00:18.959Z,7.20
2023-05-23T06:02:51.716Z,7.67
2023-05-23T06:05:39.642Z,7.47
2023-05-23T06:08:06.797Z,8.43
2023-05-23T06:10:33.916Z,8.10
2023-05-23T06:13:00.652Z,7.97
2023-05-23T06:15:27.751Z,7.90
2023-05-23T06:17:54.563Z,7.53
2023-05-23T06:20:21.972Z,8.20
2023-05-23T06:22:49.589Z,6.80
2023-05-23T06:25:16.509Z,7.30
2023-05-23T06:27:44.804Z,6.73
2023-05-23T06:30:12.217Z,7.73
2023-05-23T06:32:40.492Z,6.83
2023-05-23T06:35:07.655Z,7.30
2023-05-23T06:37:34.721Z,6.10
2023-05-23T06:40:01.768Z,6.67
2023-05-23T06:42:28.478Z,6.60
2023-05-23T06:45:04.106Z,5.90
2023-05-23T06:47:32.298Z,4.63
2023-05-23T06:49:59.052Z,5.43
2023-05-23T06:52:25.799Z,5.17
2023-05-23T06:54:52.557Z,5.23
2023-05-23T06:57:20.171Z,5.40
2023-05-23T06:59:46.856Z,4.60
2023-05-23T07:02:13.629Z,5.10
2023-05-23T07:04:40.328Z,4.50
2023-05-23T07:07:14.698Z,4.20
2023-05-23T07:09:43.499Z,3.77
2023-05-23T07:12:15.487Z,4.10
2023-05-23T07:14:44.143Z,3.73
2023-05-23T07:17:11.675Z,3.80
2023-05-23T07:19:39.056Z,3.57
2023-05-23T07:22:06.334Z,3.90
2023-05-23T07:24:37.129Z,3.60
2023-05-23T07:27:06.473Z,3.70
2023-05-23T07:29:34.302Z,3.70
2023-05-23T07:32:01.302Z,4.03
2023-05-23T07:34:29.168Z,3.80
2023-05-23T07:36:59.348Z,3.77
2023-05-23T07:39:30.928Z,3.70
2023-05-23T07:41:59.834Z,3.80
2023-05-23T07:44:26.788Z,3.70
2023-05-23T07:46:53.990Z,3.97
2023-05-23T07:49:21.676Z,3.60
2023-05-23T07:51:48.562Z,4.37
2023-05-23T07:54:16.667Z,3.97
2023-05-23T07:56:44.114Z,3.70
2023-05-23T07:59:11.135Z,3.50
2023-05-23T08:01:38.170Z,3.50
2023-05-23T08:04:07.096Z,3.40
2023-05-23T08:07:00.830Z,3.80
2023-05-23T08:09:42.122Z,3.97
2023-05-23T08:12:11.364Z,3.77
2023-05-23T08:14:50.771Z,4.00
2023-05-23T08:17:24.134Z,3.97
2023-05-23T08:19:51.672Z,4.07
2023-05-23T08:22:18.458Z,3.73
2023-05-23T08:24:45.156Z,4.33
2023-05-23T08:27:12.145Z,4.50
2023-05-23T08:29:38.889Z,3.73
2023-05-23T08:32:06.413Z,4.10
2023-05-23T08:34:34.373Z,4.03
2023-05-23T08:37:01.140Z,4.33
2023-05-23T08:39:28.040Z,3.70
2023-05-23T08:42:08.763Z,4.00
2023-05-23T08:44:35.922Z,4.00
2023-05-23T08:47:05.873Z,4.07
2023-05-23T08:49:56.554Z,4.10
2023-05-23T08:52:27.625Z,3.70
2023-05-23T08:54:56.673Z,3.23
2023-05-23T08:57:23.858Z,3.40
2023-05-23T08:59:57.527Z,3.53
2023-05-23T09:02:24.983Z,3.20
2023-05-23T09:04:55.866Z,3.40
2023-05-23T09:07:25.591Z,3.43
2023-05-23T09:09:53.430Z,3.57
2023-05-23T09:12:22.378Z,3.30
2023-05-23T09:14:50.317Z,3.20
2023-05-23T09:17:21.261Z,3.17
2023-05-23T09:19:48.400Z,3.10
2023-05-23T09:22:26.821Z,3.20
2023-05-23T09:25:14.630Z,3.10
2023-05-23T09:27:46.690Z,3.30
2023-05-23T09:30:16.002Z,3.20
2023-05-23T09:32:44.566Z,2.80
2023-05-23T09:35:13.834Z,2.67
2023-05-23T09:37:45.930Z,3.07
2023-05-23T09:40:14.670Z,2.83
2023-05-23T09:42:51.975Z,2.80
2023-05-23T09:45:18.748Z,2.90
2023-05-23T09:47:54.703Z,3.10
2023-05-23T09:50:23.607Z,2.97
2023-05-23T09:52:53.797Z,3.03
2023-05-23T09:55:20.525Z,2.80
2023-05-23T09:57:52.907Z,3.00
2023-05-23T10:00:20.395Z,2.43
2023-05-23T10:03:10.615Z,2.67
2023-05-23T10:05:48.287Z,2.70
2023-05-23T10:08:19.420Z,2.43
2023-05-23T10:11:28.925Z,2.23
2023-05-23T10:13:56.149Z,2.63
2023-05-23T10:16:34.132Z,2.47
2023-05-23T10:19:07.184Z,2.90
2023-05-23T10:21:39.634Z,3.07
2023-05-23T10:24:08.217Z,3.20
2023-05-23T10:26:35.779Z,3.50
2023-05-23T10:29:03.501Z,2.87
2023-05-23T10:31:31.219Z,3.20
2023-05-23T10:34:29.152Z,3.50
2023-05-23T10:37:04.199Z,3.70
2023-05-23T10:39:49.710Z,3.63
2023-05-23T10:42:20.502Z,3.70
2023-05-23T10:44:47.294Z,3.80
2023-05-23T10:47:26.626Z,3.67
2023-05-23T10:49:54.780Z,3.90
2023-05-23T10:52:27.939Z,3.67
2023-05-23T10:54:56.249Z,3.97
2023-05-23T10:57:28.855Z,3.90
2023-05-23T10:59:55.756Z,3.50
2023-05-23T11:02:27.610Z,3.67
2023-05-23T11:05:21.777Z,3.87
2023-05-23T11:08:14.316Z,3.27
2023-05-23T11:11:01.153Z,3.80
2023-05-23T11:14:02.799Z,4.13
2023-05-23T11:16:43.818Z,4.30
2023-05-23T11:19:20.782Z,5.73
2023-05-23T11:21:53.770Z,4.83
2023-05-23T11:24:20.816Z,4.10
2023-05-23T11:27:04.070Z,4.83
2023-05-23T11:29:30.910Z,4.20
2023-05-23T11:31:58.138Z,6.27
2023-05-23T11:34:28.057Z,5.53
2023-05-23T11:36:55.806Z,4.03
2023-05-23T11:39:23.517Z,4.43
2023-05-23T11:42:01.066Z,4.33
2023-05-23T11:44:28.250Z,4.27
2023-05-23T11:47:06.225Z,5.50
2023-05-23T11:49:38.602Z,4.97
2023-05-23T11:52:09.265Z,6.07
2023-05-23T11:54:36.419Z,4.37
2023-05-23T11:57:03.626Z,8.50
2023-05-23T11:59:30.538Z,3.60
2023-05-23T12:01:57.369Z,4.20
2023-05-23T12:04:26.884Z,4.40
2023-05-23T12:06:53.790Z,4.60
2023-05-23T12:09:20.664Z,4.87
2023-05-23T12:11:49.540Z,4.53
2023-05-23T12:14:17.454Z,5.37
2023-05-23T12:16:46.854Z,4.60
2023-05-23T12:19:17.109Z,4.40
2023-05-23T12:21:50.182Z,5.00
2023-05-23T12:24:22.082Z,5.10
2023-05-23T12:26:49.736Z,4.43
2023-05-23T12:29:18.347Z,4.97
2023-05-23T12:31:45.456Z,5.30
2023-05-23T12:34:13.304Z,4.80
2023-05-23T12:36:49.022Z,5.47
2023-05-23T12:39:16.820Z,5.03
2023-05-23T12:41:44.874Z,5.57
2023-05-23T12:44:16.543Z,5.23
2023-05-23T12:46:43.658Z,5.20
2023-05-23T12:49:10.880Z,5.57
2023-05-23T12:51:37.639Z,5.40
2023-05-23T12:54:04.541Z,5.77
2023-05-23T12:56:31.618Z,5.33
2023-05-23T12:58:58.518Z,4.37
2023-05-23T13:01:25.253Z,4.50
2023-05-23T13:03:52.145Z,4.07
2023-05-23T13:06:19.250Z,4.43
2023-05-23T13:08:46.670Z,4.70
2023-05-23T13:11:13.655Z,4.30
2023-05-23T13:13:40.427Z,4.90
2023-05-23T13:16:07.132Z,5.80
2023-05-23T13:18:33.862Z,4.87
2023-05-23T13:21:00.749Z,5.23
2023-05-23T13:23:27.518Z,4.90
2023-05-23T13:25:54.357Z,5.97
2023-05-23T13:28:21.184Z,5.07
2023-05-23T13:30:48.176Z,5.30
2023-05-23T13:33:15.512Z,4.93
2023-05-23T13:35:42.711Z,5.10
2023-05-23T13:38:10.157Z,5.23
2023-05-23T13:40:36.904Z,5.57
2023-05-23T13:43:03.743Z,4.63
2023-05-23T13:45:31.028Z,5.43
2023-05-23T13:47:57.807Z,4.80
2023-05-23T13:50:24.759Z,5.87
2023-05-23T13:52:51.759Z,5.37
2023-05-23T13:55:18.989Z,5.53
2023-05-23T13:57:46.154Z,4.70
2023-05-23T14:00:14.293Z,5.70
2023-05-23T14:02:41.041Z,5.90
2023-05-23T14:05:08.256Z,5.13
2023-05-23T14:07:35.416Z,5.53
2023-05-23T14:10:02.230Z,5.07
2023-05-23T14:12:29.016Z,5.10
2023-05-23T14:14:55.942Z,4.77
2023-05-23T14:17:22.722Z,5.53
2023-05-23T14:19:49.479Z,5.10
2023-05-23T14:22:16.444Z,5.40
2023-05-23T14:24:43.242Z,5.10
2023-05-23T14:27:11.249Z,5.27
2023-05-23T14:29:38.938Z,6.20
2023-05-23T14:32:06.233Z,5.83
2023-05-23T14:34:33.034Z,6.03
2023-05-23T14:37:01.096Z,6.00
2023-05-23T14:39:29.048Z,5.70
2023-05-23T14:41:55.987Z,5.63
2023-05-23T14:44:22.824Z,5.50
2023-05-23T14:46:50.069Z,5.23
2023-05-23T14:49:17.717Z,5.67
2023-05-23T14:51:50.466Z,6.90
2023-05-23T14:54:18.654Z,5.47
2023-05-23T14:56:45.631Z,5.13
2023-05-23T14:59:12.435Z,5.57
2023-05-23T15:01:40.609Z,5.53
2023-05-23T15:04:09.316Z,5.70
2023-05-23T15:06:37.931Z,5.57
2023-05-23T15:09:05.285Z,4.90
2023-05-23T15:11:32.207Z,4.90
2023-05-23T15:13:59.780Z,3.90
2023-05-23T15:16:26.861Z,4.70
2023-05-23T15:18:53.813Z,4.87
2023-05-23T15:21:20.958Z,4.43
2023-05-23T15:23:47.720Z,4.43
2023-05-23T15:26:14.551Z,4.17
2023-05-23T15:28:41.312Z,4.90
2023-05-23T15:31:08.159Z,3.93
2023-05-23T15:33:34.921Z,4.60
2023-05-23T15:36:02.171Z,5.10
2023-05-23T15:38:28.906Z,5.70
2023-05-23T15:40:56.725Z,5.90
2023-05-23T15:43:25.002Z,5.60
2023-05-23T15:45:52.365Z,5.73
2023-05-23T15:48:19.383Z,5.83
2023-05-23T15:50:46.252Z,5.80
2023-05-23T15:53:13.015Z,6.30
2023-05-23T15:55:42.050Z,5.90
2023-05-23T15:58:10.046Z,5.83
2023-05-23T16:00:36.929Z,7.47
2023-05-23T16:03:03.807Z,5.93
2023-05-23T16:05:30.849Z,5.53
2023-05-23T16:07:57.567Z,6.20
2023-05-23T16:10:25.395Z,5.90
2023-05-23T16:12:52.154Z,6.03
2023-05-23T16:15:19.064Z,5.67
2023-05-23T16:17:45.919Z,5.83
2023-05-23T16:20:12.912Z,5.67
2023-05-23T16:22:40.622Z,5.43
2023-05-23T16:25:09.229Z,5.57
2023-05-23T16:27:36.088Z,5.53
2023-05-23T16:30:04.156Z,5.57
2023-05-23T16:32:31.026Z,5.90
2023-05-23T16:34:57.807Z,5.67
2023-05-23T16:37:24.589Z,5.20
2023-05-23T16:39:51.437Z,5.03
2023-05-23T16:42:18.179Z,5.30
2023-05-23T16:44:45.489Z,4.43
2023-05-23T16:47:12.322Z,5.13
2023-05-23T16:49:39.010Z,5.20
2023-05-23T16:52:05.944Z,6.07
2023-05-23T16:54:32.683Z,5.67
2023-05-23T16:57:01.788Z,5.57
2023-05-23T16:59:29.773Z,5.23
2023-05-23T17:01:56.868Z,5.60
2023-05-23T17:04:23.977Z,5.93
2023-05-23T17:06:51.060Z,5.90
2023-05-23T17:09:18.125Z,6.40
2023-05-23T17:11:45.138Z,5.40
2023-05-23T17:14:12.414Z,6.13
2023-05-23T17:16:39.239Z,6.67
2023-05-23T17:19:06.145Z,6.30
2023-05-23T17:21:33.489Z,5.60
2023-05-23T17:24:00.336Z,6.20
2023-05-23T17:26:27.245Z,6.13
2023-05-23T17:28:54.103Z,10.37
2023-05-23T17:31:21.354Z,6.67
2023-05-23T17:33:48.101Z,6.00
2023-05-23T17:36:14.846Z,5.87
2023-05-23T17:38:41.849Z,5.97
2023-05-23T17:41:08.689Z,6.50
2023-05-23T17:43:35.830Z,5.47
2023-05-23T17:46:02.633Z,5.87
2023-05-23T17:48:45.925Z,6.50
2023-05-23T17:51:13.674Z,5.20
2023-05-23T17:53:41.583Z,5.70
2023-05-23T17:56:09.367Z,5.10
2023-05-23T17:58:41.818Z,5.30
2023-05-23T18:01:11.664Z,5.37
2023-05-23T18:03:38.908Z,5.20
2023-05-23T18:06:05.873Z,5.20
2023-05-23T18:08:32.574Z,5.20
2023-05-23T18:10:59.318Z,5.33
2023-05-23T18:13:26.057Z,5.67
2023-05-23T18:15:52.776Z,5.60
2023-05-23T18:18:19.570Z,5.50
2023-05-23T18:20:46.425Z,5.80
2023-05-23T18:23:13.136Z,5.57
2023-05-23T18:25:39.849Z,5.70
2023-05-23T18:28:06.588Z,5.67
2023-05-23T18:30:33.618Z,5.50
2023-05-23T18:33:00.941Z,5.50
2023-05-23T18:35:27.936Z,6.40
2023-05-23T18:37:54.735Z,5.50
2023-05-23T18:40:23.729Z,5.33
2023-05-23T18:42:50.654Z,6.20
2023-05-23T18:45:17.486Z,5.87
2023-05-23T18:47:44.808Z,5.43
2023-05-23T18:50:12.786Z,6.30
2023-05-23T18:52:40.019Z,5.67
2023-05-23T18:55:07.562Z,5.87
2023-05-23T18:57:34.371Z,6.27
2023-05-23T19:00:03.223Z,6.13
2023-05-23T19:02:30.195Z,7.47
2023-05-23T19:04:57.182Z,6.70
2023-05-23T19:07:23.910Z,7.20
2023-05-23T19:09:50.814Z,7.53
2023-05-23T19:12:17.587Z,7.77
2023-05-23T19:14:44.292Z,7.53
2023-05-23T19:17:11.481Z,7.87
2023-05-23T19:19:38.344Z,7.73
2023-05-23T19:22:05.265Z,7.50
2023-05-23T19:24:32.127Z,7.63
2023-05-23T19:26:58.982Z,7.27
2023-05-23T19:29:26.444Z,7.70
2023-05-23T19:31:53.718Z,7.80
2023-05-23T19:34:20.475Z,7.57
2023-05-23T19:36:47.206Z,7.70
2023-05-23T19:39:14.994Z,8.30
2023-05-23T19:41:42.035Z,7.57
2023-05-23T19:44:09.289Z,7.83
2023-05-23T19:46:35.980Z,7.13
2023-05-23T19:49:02.749Z,7.47
2023-05-23T19:51:29.465Z,7.70
2023-05-23T19:53:56.299Z,7.67
2023-05-23T19:56:23.741Z,7.73
2023-05-23T19:58:50.598Z,7.80
2023-05-23T20:01:17.341Z,8.40
2023-05-23T20:03:44.423Z,7.70
2023-05-23T20:06:11.388Z,7.37
2023-05-23T20:08:38.337Z,7.77
2023-05-23T20:11:05.166Z,8.40
2023-05-23T20:13:32.067Z,8.10
2023-05-23T20:15:58.977Z,8.50
2023-05-23T20:18:25.821Z,7.90
2023-05-23T20:20:53.416Z,8.10
2023-05-23T20:23:20.557Z,8.00
2023-05-23T20:25:47.416Z,8.13
2023-05-23T20:28:14.161Z,7.40
2023-05-23T20:30:41.134Z,7.70
2023-05-23T20:33:08.066Z,8.20
2023-05-23T20:35:34.864Z,8.53
2023-05-23T20:38:01.558Z,7.10
2023-05-23T20:40:29.519Z,8.03
2023-05-23T20:42:58.286Z,8.20
2023-05-23T20:45:27.008Z,7.83
2023-05-23T20:47:53.840Z,8.07
2023-05-23T20:50:21.976Z,8.20
2023-05-23T20:52:48.798Z,8.30
2023-05-23T20:55:15.552Z,9.00
2023-05-23T20:57:42.536Z,8.97
2023-05-23T21:00:13.298Z,8.87
2023-05-23T21:02:40.928Z,8.90
2023-05-23T21:05:08.858Z,8.97
2023-05-23T21:07:35.933Z,9.50
2023-05-23T21:10:03.347Z,8.83
2023-05-23T21:12:30.444Z,8.70
2023-05-23T21:14:57.246Z,9.80
2023-05-23T21:17:24.365Z,9.33
2023-05-23T21:19:51.416Z,8.60
2023-05-23T21:22:18.167Z,9.37
2023-05-23T21:24:44.912Z,9.27
2023-05-23T21:27:11.989Z,9.00
2023-05-23T21:29:38.698Z,8.93
2023-05-23T21:32:05.500Z,9.50
2023-05-23T21:34:32.194Z,9.17
2023-05-23T21:36:58.929Z,9.07
2023-05-23T21:39:28.809Z,9.53
2023-05-23T21:42:00.334Z,9.23
2023-05-23T21:44:27.033Z,8.97
2023-05-23T21:46:53.788Z,9.60
2023-05-23T21:49:20.539Z,9.13
2023-05-23T21:51:47.274Z,8.97
2023-05-23T21:54:14.080Z,8.90
2023-05-23T21:56:41.021Z,8.90
2023-05-23T21:59:08.198Z,9.23
2023-05-23T22:01:35.617Z,9.73
2023-05-23T22:04:02.470Z,9.27
2023-05-23T22:06:29.235Z,10.17
2023-05-23T22:08:55.958Z,9.30
2023-05-23T22:11:22.702Z,9.50
2023-05-23T22:13:49.445Z,9.97
2023-05-23T22:16:16.157Z,10.03
2023-05-23T22:18:51.694Z,10.67
2023-05-23T22:21:19.218Z,10.33
2023-05-23T22:23:45.925Z,10.27
2023-05-23T22:26:12.784Z,10.27
2023-05-23T22:28:39.689Z,9.67
2023-05-23T22:31:06.580Z,9.93
2023-05-23T22:33:33.386Z,8.87
2023-05-23T22:36:00.160Z,10.20
2023-05-23T22:38:26.875Z,9.70
2023-05-23T22:40:53.647Z,10.13
2023-05-23T22:43:21.805Z,10.67
2023-05-23T22:45:50.110Z,10.37
2023-05-23T22:48:20.268Z,10.77
2023-05-23T22:50:47.310Z,10.60
2023-05-23T22:53:16.676Z,10.30
2023-05-23T22:55:43.513Z,10.27
2023-05-23T22:58:10.413Z,10.73
2023-05-23T23:00:37.176Z,9.70
2023-05-23T23:03:04.231Z,10.93
2023-05-23T23:05:31.279Z,11.17
2023-05-23T23:07:57.987Z,9.97
2023-05-23T23:10:24.902Z,9.53
2023-05-23T23:12:51.630Z,9.90
2023-05-23T23:15:18.369Z,9.63
2023-05-23T23:17:45.689Z,9.83
2023-05-23T23:20:13.270Z,9.00
2023-05-23T23:22:40.056Z,10.07
2023-05-23T23:25:10.512Z,10.07
2023-05-23T23:27:37.915Z,9.60
2023-05-23T23:30:06.478Z,10.03
2023-05-23T23:32:34.397Z,9.27
2023-05-23T23:35:01.511Z,9.90
2023-05-23T23:37:28.367Z,10.10
2023-05-23T23:39:55.068Z,9.33
2023-05-23T23:42:21.803Z,9.40
2023-05-23T23:44:48.566Z,8.77
2023-05-23T23:47:15.391Z,9.70
2023-05-23T23:49:42.515Z,8.80
2023-05-23T23:52:09.414Z,9.23
2023-05-23T23:54:36.149Z,8.97
2023-05-23T23:57:02.937Z,9.77
2023-05-23T23:59:29.674Z,10.33
